Gillespie, Illinois
Current Conditions -  °F | °C
As of 3:55 PM on Monday 22 Dec 2014 (Local Time) from K3LF Reporting Station
Light Rain Light Rain  
Wind Chill: 39°   Ceiling: 600
Heat Index: 45°   Visibility: 5mi
Dew Point: 43°   Wind: 12mph
Humidity: 94%   Direction: 130°SE
Pressure: 29.57"   Gusts: NA
Location:  39.13°N, 89.82°W
Report Text: K3LF 222155Z AUTO 13010KT 5SM -RA OVC006 07/06 A2957 RMK AO2 P0006 T00720063
Loading
Personal Weather Stations






























Interactive Weather Map New forecast layout! Learn more

10-Day Weather Forecast

Advertisements
Track Severe Weather on mobile